createdAt,value
2017-02-09T00:00:44.763Z,0
2017-02-09T00:01:44.351Z,0
2017-02-09T00:02:44.858Z,0
2017-02-09T00:03:44.721Z,0
2017-02-09T00:04:45.102Z,0
2017-02-09T00:05:43.881Z,0
2017-02-09T00:06:44.680Z,0
2017-02-09T00:07:44.168Z,0
2017-02-09T00:08:43.761Z,0
2017-02-09T00:09:44.502Z,0
2017-02-09T00:10:44.519Z,0
2017-02-09T00:11:44.526Z,0
2017-02-09T00:12:44.430Z,0
2017-02-09T00:13:44.397Z,0
2017-02-09T00:14:44.425Z,0
2017-02-09T00:15:43.625Z,0
2017-02-09T00:16:43.929Z,0
2017-02-09T00:17:43.912Z,0
2017-02-09T00:18:44.643Z,0
2017-02-09T00:19:44.232Z,0
2017-02-09T00:20:44.226Z,0
2017-02-09T00:21:44.175Z,0
2017-02-09T00:22:44.521Z,0
2017-02-09T00:23:43.780Z,0
2017-02-09T00:24:44.178Z,0
2017-02-09T00:25:43.666Z,0
2017-02-09T00:26:43.666Z,0
2017-02-09T00:27:43.993Z,0
2017-02-09T00:28:44.041Z,0
2017-02-09T00:29:43.627Z,0
2017-02-09T00:30:43.934Z,0
2017-02-09T00:31:43.887Z,0
2017-02-09T00:32:43.874Z,0
2017-02-09T00:33:43.890Z,0
2017-02-09T00:34:44.211Z,0
2017-02-09T00:35:43.823Z,0
2017-02-09T00:36:43.767Z,0
2017-02-09T00:37:44.113Z,0
2017-02-09T00:38:44.091Z,0
2017-02-09T00:39:44.047Z,0
2017-02-09T00:40:43.264Z,0
2017-02-09T00:41:43.645Z,0
2017-02-09T00:42:43.580Z,0
2017-02-09T00:43:43.599Z,0
2017-02-09T00:44:43.517Z,0
2017-02-09T00:45:43.927Z,0
2017-02-09T00:46:42.696Z,0
2017-02-09T00:47:43.877Z,0
2017-02-09T00:48:43.057Z,0
2017-02-09T00:49:43.056Z,0
2017-02-09T00:50:43.384Z,0
2017-02-09T00:51:43.775Z,0
2017-02-09T00:52:43.779Z,0
2017-02-09T00:53:43.685Z,0
2017-02-09T00:54:43.691Z,0
2017-02-09T00:55:43.615Z,0
2017-02-09T00:56:43.181Z,0
2017-02-09T00:57:43.183Z,0
2017-02-09T00:58:43.520Z,0
2017-02-09T00:59:43.520Z,0
2017-02-09T01:00:43.074Z,0
2017-02-09T01:01:43.460Z,0
2017-02-09T01:02:43.417Z,0
2017-02-09T01:03:42.669Z,0
2017-02-09T01:04:42.971Z,0
2017-02-09T01:05:43.395Z,0
2017-02-09T01:06:43.312Z,0
2017-02-09T01:07:43.385Z,0
2017-02-09T01:08:42.564Z,0
2017-02-09T01:09:43.279Z,0
2017-02-09T01:10:43.197Z,0
2017-02-09T01:11:42.770Z,0
2017-02-09T01:12:42.425Z,0
2017-02-09T01:13:43.138Z,0
2017-02-09T01:14:43.073Z,0
2017-02-09T01:15:42.659Z,0
2017-02-09T01:16:42.642Z,0
2017-02-09T01:17:43.124Z,0
2017-02-09T01:18:42.570Z,0
2017-02-09T01:19:42.152Z,0
2017-02-09T01:20:42.920Z,0
2017-02-09T01:21:42.097Z,0
2017-02-09T01:22:42.069Z,0
2017-02-09T01:23:42.049Z,0
2017-02-09T01:24:42.406Z,0
2017-02-09T01:25:42.389Z,0
2017-02-09T01:26:42.054Z,0
2017-02-09T01:27:42.377Z,0
2017-02-09T01:28:41.898Z,0
2017-02-09T01:29:41.982Z,0
2017-02-09T01:30:42.275Z,0
2017-02-09T01:31:41.824Z,0
2017-02-09T01:32:41.816Z,0
2017-02-09T01:33:42.542Z,0
2017-02-09T01:34:42.132Z,0
2017-02-09T01:35:41.714Z,0
2017-02-09T01:36:41.699Z,0
2017-02-09T01:37:42.049Z,0
2017-02-09T01:38:42.053Z,0
2017-02-09T01:39:42.368Z,0
2017-02-09T01:40:42.388Z,0
2017-02-09T01:41:42.327Z,0
2017-02-09T01:42:41.569Z,0
2017-02-09T01:43:42.284Z,0
2017-02-09T01:44:42.245Z,0
2017-02-09T01:45:41.827Z,0
2017-02-09T01:46:41.820Z,0
2017-02-09T01:47:41.384Z,0
2017-02-09T01:48:41.766Z,0
2017-02-09T01:49:41.331Z,0
2017-02-09T01:50:41.294Z,0
2017-02-09T01:51:41.662Z,0
2017-02-09T01:52:41.633Z,0
2017-02-09T01:53:42.038Z,0
2017-02-09T01:54:41.610Z,0
2017-02-09T01:55:40.771Z,0
2017-02-09T01:56:41.915Z,0
2017-02-09T01:57:41.889Z,0
2017-02-09T01:58:41.468Z,0
2017-02-09T01:59:41.899Z,0
2017-02-09T02:00:41.489Z,0
2017-02-09T02:01:41.768Z,0
2017-02-09T02:02:41.347Z,0
2017-02-09T02:03:41.725Z,0
2017-02-09T02:04:41.731Z,0
2017-02-09T02:05:40.496Z,0
2017-02-09T02:06:41.669Z,0
2017-02-09T02:07:41.214Z,0
2017-02-09T02:08:41.193Z,0
2017-02-09T02:09:41.696Z,0
2017-02-09T02:10:41.617Z,0
2017-02-09T02:11:40.739Z,0
2017-02-09T02:12:41.081Z,0
2017-02-09T02:13:41.590Z,0
2017-02-09T02:14:41.444Z,0
2017-02-09T02:15:40.980Z,0
2017-02-09T02:16:40.971Z,0
2017-02-09T02:17:41.372Z,0
2017-02-09T02:18:41.298Z,0
2017-02-09T02:19:41.279Z,0
2017-02-09T02:20:40.857Z,0
2017-02-09T02:21:40.981Z,0
2017-02-09T02:22:41.197Z,0
2017-02-09T02:23:40.395Z,0
2017-02-09T02:24:41.175Z,0
2017-02-09T02:25:40.336Z,0
2017-02-09T02:26:40.725Z,0
2017-02-09T02:27:40.642Z,0
2017-02-09T02:28:41.112Z,0
2017-02-09T02:29:41.054Z,0
2017-02-09T02:30:40.632Z,0
2017-02-09T02:31:40.184Z,0
2017-02-09T02:32:39.419Z,0
2017-02-09T02:33:40.081Z,0
2017-02-09T02:34:40.451Z,0
2017-02-09T02:35:40.803Z,0
2017-02-09T02:36:40.085Z,0
2017-02-09T02:37:39.571Z,0
2017-02-09T02:38:40.755Z,0
2017-02-09T02:39:40.317Z,0
2017-02-09T02:40:39.897Z,0
2017-02-09T02:41:39.858Z,0
2017-02-09T02:42:40.229Z,0
2017-02-09T02:43:40.213Z,0
2017-02-09T02:44:40.588Z,0
2017-02-09T02:45:40.254Z,0
2017-02-09T02:46:40.116Z,0
2017-02-09T02:47:40.473Z,0
2017-02-09T02:48:40.110Z,0
2017-02-09T02:49:39.693Z,0
2017-02-09T02:50:39.622Z,0
2017-02-09T02:51:39.196Z,0
2017-02-09T02:52:40.327Z,0
2017-02-09T02:53:40.060Z,0
2017-02-09T02:54:39.499Z,0
2017-02-09T02:55:40.264Z,0
2017-02-09T02:56:38.651Z,0
2017-02-09T02:57:39.789Z,0
2017-02-09T02:58:39.789Z,0
2017-02-09T02:59:39.761Z,0
2017-02-09T03:00:39.322Z,0
2017-02-09T03:01:39.737Z,0
2017-02-09T03:02:40.039Z,0
2017-02-09T03:03:39.692Z,0
2017-02-09T03:04:40.118Z,0
2017-02-09T03:05:39.979Z,0
2017-02-09T03:06:39.184Z,0
2017-02-09T03:07:39.181Z,0
2017-02-09T03:08:39.492Z,0
2017-02-09T03:09:39.855Z,0
2017-02-09T03:10:39.580Z,0
2017-02-09T03:11:39.814Z,0
2017-02-09T03:12:39.802Z,0
2017-02-09T03:13:39.372Z,0
2017-02-09T03:14:39.788Z,0
2017-02-09T03:15:39.296Z,0
2017-02-09T03:16:39.278Z,0
2017-02-09T03:17:39.247Z,0
2017-02-09T03:18:39.661Z,0
2017-02-09T03:19:38.805Z,0
2017-02-09T03:20:39.258Z,0
2017-02-09T03:21:39.136Z,0
2017-02-09T03:22:39.105Z,0
2017-02-09T03:23:39.131Z,0
2017-02-09T03:24:39.051Z,0
2017-02-09T03:25:39.033Z,0
2017-02-09T03:26:39.487Z,0
2017-02-09T03:27:38.959Z,0
2017-02-09T03:28:38.942Z,0
2017-02-09T03:29:38.911Z,0
2017-02-09T03:30:38.881Z,0
2017-02-09T03:31:38.465Z,0
2017-02-09T03:32:39.196Z,0
2017-02-09T03:33:38.819Z,0
2017-02-09T03:34:38.771Z,0
2017-02-09T03:35:39.233Z,0
2017-02-09T03:36:38.707Z,0
2017-02-09T03:37:38.704Z,0
2017-02-09T03:38:38.697Z,0
2017-02-09T03:39:38.626Z,0
2017-02-09T03:40:38.644Z,0
2017-02-09T03:41:38.968Z,0
2017-02-09T03:42:38.180Z,0
2017-02-09T03:43:38.564Z,0
2017-02-09T03:44:38.991Z,0
2017-02-09T03:45:38.452Z,0
2017-02-09T03:46:38.836Z,0
2017-02-09T03:47:38.792Z,0
2017-02-09T03:48:38.480Z,0
2017-02-09T03:49:38.711Z,0
2017-02-09T03:50:38.700Z,0
2017-02-09T03:51:37.589Z,0
2017-02-09T03:52:38.643Z,0
2017-02-09T03:53:38.247Z,0
2017-02-09T03:54:38.215Z,0
2017-02-09T03:55:38.537Z,0
2017-02-09T03:56:37.766Z,0
2017-02-09T03:57:38.531Z,0
2017-02-09T03:58:38.463Z,0
2017-02-09T03:59:38.458Z,0
2017-02-09T04:00:38.144Z,0
2017-02-09T04:01:37.604Z,0
2017-02-09T04:02:37.961Z,0
2017-02-09T04:03:37.956Z,0
2017-02-09T04:04:38.313Z,0
2017-02-09T04:05:38.281Z,0
2017-02-09T04:06:37.471Z,0
2017-02-09T04:07:37.046Z,0
2017-02-09T04:08:38.200Z,0
2017-02-09T04:09:37.804Z,0
2017-02-09T04:10:37.405Z,0
2017-02-09T04:11:37.713Z,0
2017-02-09T04:12:38.059Z,0
2017-02-09T04:13:37.798Z,0
2017-02-09T04:14:37.637Z,0
2017-02-09T04:15:38.097Z,0
2017-02-09T04:16:37.583Z,0
2017-02-09T04:17:37.585Z,0
2017-02-09T04:18:37.898Z,0
2017-02-09T04:19:37.524Z,0
2017-02-09T04:20:37.853Z,0
2017-02-09T04:21:37.037Z,0
2017-02-09T04:22:37.025Z,0
2017-02-09T04:23:37.412Z,0
2017-02-09T04:24:36.952Z,0
2017-02-09T04:25:37.313Z,0
2017-02-09T04:26:36.884Z,0
2017-02-09T04:27:37.675Z,0
2017-02-09T04:28:37.247Z,0
2017-02-09T04:29:37.215Z,0
2017-02-09T04:30:37.178Z,0
2017-02-09T04:31:36.367Z,0
2017-02-09T04:32:37.496Z,0
2017-02-09T04:33:36.709Z,0
2017-02-09T04:34:37.116Z,0
2017-02-09T04:35:37.072Z,0
2017-02-09T04:36:36.998Z,0
2017-02-09T04:37:37.405Z,0
2017-02-09T04:38:36.560Z,0
2017-02-09T04:39:36.928Z,0
2017-02-09T04:40:36.905Z,0
2017-02-09T04:41:36.498Z,0
2017-02-09T04:42:36.832Z,0
2017-02-09T04:43:36.801Z,0
2017-02-09T04:44:36.781Z,0
2017-02-09T04:45:36.754Z,0
2017-02-09T04:46:36.719Z,0
2017-02-09T04:47:36.303Z,0
2017-02-09T04:48:36.658Z,0
2017-02-09T04:49:37.028Z,0
2017-02-09T04:50:36.642Z,0
2017-02-09T04:51:36.598Z,0
2017-02-09T04:52:36.928Z,0
2017-02-09T04:53:36.915Z,0
2017-02-09T04:54:36.504Z,0
2017-02-09T04:55:36.472Z,0
2017-02-09T04:56:36.828Z,0
2017-02-09T04:57:36.791Z,0
2017-02-09T04:58:36.357Z,0
2017-02-09T04:59:36.723Z,0
2017-02-09T05:00:36.344Z,0
2017-02-09T05:01:36.295Z,0
2017-02-09T05:02:36.248Z,0
2017-02-09T05:03:36.632Z,0
2017-02-09T05:04:36.197Z,0
2017-02-09T05:05:36.563Z,0
2017-02-09T05:06:36.160Z,0
2017-02-09T05:07:36.530Z,0
2017-02-09T05:08:36.113Z,0
2017-02-09T05:09:36.058Z,0
2017-02-09T05:10:36.032Z,0
2017-02-09T05:11:35.997Z,0
2017-02-09T05:12:35.961Z,0
2017-02-09T05:13:36.349Z,0
2017-02-09T05:14:35.917Z,0
2017-02-09T05:15:35.895Z,0
2017-02-09T05:16:35.468Z,0
2017-02-09T05:17:35.433Z,0
2017-02-09T05:18:35.798Z,0
2017-02-09T05:19:35.766Z,0
2017-02-09T05:20:36.124Z,0
2017-02-09T05:21:35.714Z,0
2017-02-09T05:22:35.301Z,0
2017-02-09T05:23:36.063Z,0
2017-02-09T05:24:35.247Z,0
2017-02-09T05:25:36.030Z,0
2017-02-09T05:26:35.579Z,0
2017-02-09T05:27:35.151Z,0
2017-02-09T05:28:35.512Z,0
2017-02-09T05:29:35.475Z,0
2017-02-09T05:30:34.681Z,0
2017-02-09T05:31:35.038Z,0
2017-02-09T05:32:35.136Z,0
2017-02-09T05:33:34.606Z,0
2017-02-09T05:34:34.597Z,0
2017-02-09T05:35:35.713Z,0
2017-02-09T05:36:35.662Z,0
2017-02-09T05:37:35.770Z,0
2017-02-09T05:38:34.863Z,0
2017-02-09T05:39:35.662Z,0
2017-02-09T05:40:34.791Z,0
2017-02-09T05:41:35.156Z,0
2017-02-09T05:42:35.108Z,0
2017-02-09T05:43:35.251Z,0
2017-02-09T05:44:34.749Z,0
2017-02-09T05:45:34.620Z,0
2017-02-09T05:46:34.998Z,0
2017-02-09T05:47:34.978Z,0
2017-02-09T05:48:34.999Z,0
2017-02-09T05:49:34.527Z,0
2017-02-09T05:50:34.877Z,0
2017-02-09T05:51:34.465Z,0
2017-02-09T05:52:34.545Z,0
2017-02-09T05:53:34.406Z,0
2017-02-09T05:54:34.775Z,0
2017-02-09T05:55:35.157Z,0
2017-02-09T05:56:34.703Z,0
2017-02-09T05:57:34.682Z,0
2017-02-09T05:58:34.242Z,0
2017-02-09T05:59:35.034Z,0
2017-02-09T06:00:34.993Z,0
2017-02-09T06:01:34.177Z,0
2017-02-09T06:02:34.532Z,0
2017-02-09T06:03:34.132Z,0
2017-02-09T06:04:34.881Z,0
2017-02-09T06:05:34.457Z,0
2017-02-09T06:06:34.809Z,0
2017-02-09T06:07:34.838Z,0
2017-02-09T06:08:34.757Z,0
2017-02-09T06:09:34.805Z,0
2017-02-09T06:10:34.304Z,0
2017-02-09T06:11:34.285Z,0
2017-02-09T06:12:34.268Z,0
2017-02-09T06:13:34.703Z,0
2017-02-09T06:14:34.194Z,0
2017-02-09T06:15:33.764Z,0
2017-02-09T06:16:34.142Z,0
2017-02-09T06:17:34.114Z,0
2017-02-09T06:18:33.691Z,0
2017-02-09T06:19:34.562Z,0
2017-02-09T06:20:34.071Z,0
2017-02-09T06:21:33.591Z,0
2017-02-09T06:22:33.949Z,0
2017-02-09T06:23:34.031Z,0
2017-02-09T06:24:34.371Z,0
2017-02-09T06:25:34.248Z,0
2017-02-09T06:26:33.928Z,0
2017-02-09T06:27:34.234Z,0
2017-02-09T06:28:34.199Z,0
2017-02-09T06:29:34.205Z,0
2017-02-09T06:30:33.777Z,0
2017-02-09T06:31:34.114Z,0
2017-02-09T06:32:32.893Z,0
2017-02-09T06:33:34.097Z,0
2017-02-09T06:34:34.005Z,0
2017-02-09T06:35:34.009Z,0
2017-02-09T06:36:33.943Z,0
2017-02-09T06:37:33.911Z,0
2017-02-09T06:38:33.510Z,0
2017-02-09T06:39:33.860Z,0
2017-02-09T06:40:32.730Z,0
2017-02-09T06:41:33.420Z,0
2017-02-09T06:42:33.003Z,0
2017-02-09T06:43:33.355Z,0
2017-02-09T06:44:33.401Z,0
2017-02-09T06:45:33.899Z,0
2017-02-09T06:46:33.291Z,0
2017-02-09T06:47:33.008Z,0
2017-02-09T06:48:33.722Z,0
2017-02-09T06:49:32.794Z,0
2017-02-09T06:50:33.687Z,0
2017-02-09T06:51:33.675Z,0
2017-02-09T06:52:32.727Z,0
2017-02-09T06:53:32.672Z,0
2017-02-09T06:54:33.483Z,0
2017-02-09T06:55:32.657Z,0
2017-02-09T06:56:33.501Z,0
2017-02-09T06:57:33.439Z,0
2017-02-09T06:58:32.928Z,0
2017-02-09T06:59:33.299Z,0
2017-02-09T07:00:32.878Z,0
2017-02-09T07:01:32.928Z,0
2017-02-09T07:02:32.857Z,0
2017-02-09T07:03:33.267Z,0
2017-02-09T07:04:33.206Z,0
2017-02-09T07:05:33.135Z,0
2017-02-09T07:06:32.706Z,0
2017-02-09T07:07:32.332Z,0
2017-02-09T07:08:33.098Z,0
2017-02-09T07:09:32.623Z,0
2017-02-09T07:10:33.020Z,0
2017-02-09T07:11:32.601Z,0
2017-02-09T07:12:32.923Z,0
2017-02-09T07:13:32.101Z,0
2017-02-09T07:14:32.542Z,0
2017-02-09T07:15:32.040Z,0
2017-02-09T07:16:32.438Z,0
2017-02-09T07:17:32.495Z,5
2017-02-09T07:18:32.742Z,5
2017-02-09T07:19:32.702Z,5
2017-02-09T07:20:32.658Z,5
2017-02-09T07:21:32.242Z,5
2017-02-09T07:22:31.874Z,5
2017-02-09T07:23:31.812Z,5
2017-02-09T07:24:32.255Z,5
2017-02-09T07:25:32.521Z,5
2017-02-09T07:26:32.550Z,5
2017-02-09T07:27:32.091Z,5
2017-02-09T07:28:32.042Z,5
2017-02-09T07:29:31.645Z,5
2017-02-09T07:30:31.604Z,5
2017-02-09T07:31:32.362Z,5
2017-02-09T07:32:31.958Z,5
2017-02-09T07:33:32.041Z,5
2017-02-09T07:34:31.477Z,5
2017-02-09T07:35:31.521Z,5
2017-02-09T07:36:32.209Z,5
2017-02-09T07:37:32.223Z,5
2017-02-09T07:38:31.766Z,5
2017-02-09T07:39:31.463Z,5
2017-02-09T07:40:32.087Z,5
2017-02-09T07:41:32.086Z,5
2017-02-09T07:42:31.649Z,5
2017-02-09T07:43:31.836Z,5
2017-02-09T07:44:32.012Z,5
2017-02-09T07:45:31.758Z,5
2017-02-09T07:46:31.993Z,10
2017-02-09T07:47:31.142Z,10
2017-02-09T07:48:31.481Z,10
2017-02-09T07:49:31.061Z,10
2017-02-09T07:50:31.042Z,10
2017-02-09T07:51:30.998Z,10
2017-02-09T07:52:31.789Z,10
2017-02-09T07:53:31.336Z,10
2017-02-09T07:54:30.525Z,10
2017-02-09T07:55:31.686Z,10
2017-02-09T07:56:31.247Z,10
2017-02-09T07:57:30.844Z,10
2017-02-09T07:58:31.578Z,10
2017-02-09T07:59:30.385Z,10
2017-02-09T08:00:30.765Z,10
2017-02-09T08:01:31.128Z,15
2017-02-09T08:02:31.475Z,15
2017-02-09T08:03:31.072Z,15
2017-02-09T08:04:31.039Z,15
2017-02-09T08:05:30.973Z,15
2017-02-09T08:06:30.967Z,15
2017-02-09T08:07:30.935Z,15
2017-02-09T08:08:30.504Z,15
2017-02-09T08:09:30.880Z,15
2017-02-09T08:10:30.824Z,15
2017-02-09T08:11:30.067Z,15
2017-02-09T08:12:30.447Z,15
2017-02-09T08:13:31.149Z,15
2017-02-09T08:14:30.793Z,15
2017-02-09T08:15:30.709Z,15
2017-02-09T08:16:31.067Z,15
2017-02-09T08:17:29.500Z,15
2017-02-09T08:18:30.627Z,15
2017-02-09T08:19:31.006Z,20
2017-02-09T08:20:30.945Z,15
2017-02-09T08:21:30.956Z,20
2017-02-09T08:22:30.507Z,20
2017-02-09T08:23:30.454Z,20
2017-02-09T08:24:30.143Z,20
2017-02-09T08:25:29.639Z,20
2017-02-09T08:26:29.622Z,20
2017-02-09T08:27:30.372Z,20
2017-02-09T08:28:29.634Z,20
2017-02-09T08:29:29.895Z,20
2017-02-09T08:30:30.253Z,20
2017-02-09T08:31:30.625Z,20
2017-02-09T08:32:30.602Z,20
2017-02-09T08:33:30.575Z,20
2017-02-09T08:34:29.502Z,20
2017-02-09T08:35:30.134Z,20
2017-02-09T08:36:29.718Z,20
2017-02-09T08:37:28.890Z,20
2017-02-09T08:38:30.121Z,20
2017-02-09T08:39:29.620Z,20
2017-02-09T08:40:30.401Z,20
2017-02-09T08:41:29.174Z,20
2017-02-09T08:42:29.937Z,20
2017-02-09T08:43:29.899Z,20
2017-02-09T08:44:29.860Z,20
2017-02-09T08:45:30.291Z,20
2017-02-09T08:46:29.813Z,20
2017-02-09T08:47:29.793Z,20
2017-02-09T08:48:30.156Z,20
2017-02-09T08:49:29.713Z,20
2017-02-09T08:50:29.676Z,20
2017-02-09T08:51:30.058Z,20
2017-02-09T08:52:28.860Z,20
2017-02-09T08:53:29.220Z,20
2017-02-09T08:54:29.222Z,20
2017-02-09T08:55:28.787Z,20
2017-02-09T08:56:29.991Z,25
2017-02-09T08:57:29.932Z,25
2017-02-09T08:58:29.460Z,25
2017-02-09T08:59:29.427Z,25
2017-02-09T09:00:28.637Z,25
2017-02-09T09:01:29.385Z,25
2017-02-09T09:02:28.967Z,25
2017-02-09T09:03:29.690Z,25
2017-02-09T09:04:29.296Z,25
2017-02-09T09:05:28.894Z,25
2017-02-09T09:06:29.254Z,25
2017-02-09T09:07:28.803Z,25
2017-02-09T09:08:29.163Z,25
2017-02-09T09:09:29.541Z,25
2017-02-09T09:10:28.732Z,25
2017-02-09T09:11:29.102Z,25
2017-02-09T09:12:29.461Z,25
2017-02-09T09:13:28.733Z,25
2017-02-09T09:14:28.981Z,25
2017-02-09T09:15:28.991Z,25
2017-02-09T09:16:28.997Z,30
2017-02-09T09:17:28.911Z,30
2017-02-09T09:18:28.514Z,30
2017-02-09T09:19:29.225Z,30
2017-02-09T09:20:29.268Z,30
2017-02-09T09:21:28.809Z,30
2017-02-09T09:22:28.798Z,30
2017-02-09T09:23:28.357Z,35
2017-02-09T09:24:28.713Z,35
2017-02-09T09:25:29.076Z,35
2017-02-09T09:26:28.674Z,35
2017-02-09T09:27:28.694Z,35
2017-02-09T09:28:29.065Z,35
2017-02-09T09:29:28.192Z,35
2017-02-09T09:30:28.156Z,35
2017-02-09T09:31:28.542Z,35
2017-02-09T09:32:28.882Z,35
2017-02-09T09:33:28.471Z,35
2017-02-09T09:34:28.845Z,35
2017-02-09T09:35:28.001Z,35
2017-02-09T09:36:27.582Z,40
2017-02-09T09:37:28.001Z,40
2017-02-09T09:38:27.569Z,45
2017-02-09T09:39:28.357Z,45
2017-02-09T09:40:28.649Z,45
2017-02-09T09:41:27.948Z,45
2017-02-09T09:42:27.846Z,45
2017-02-09T09:43:28.177Z,45
2017-02-09T09:44:27.756Z,45
2017-02-09T09:45:28.236Z,40
2017-02-09T09:46:28.160Z,40
2017-02-09T09:47:27.275Z,40
2017-02-09T09:48:28.048Z,45
2017-02-09T09:49:27.986Z,45
2017-02-09T09:50:28.407Z,45
2017-02-09T09:51:27.932Z,45
2017-02-09T09:52:28.020Z,45
2017-02-09T09:53:27.897Z,40
2017-02-09T09:54:27.861Z,40
2017-02-09T09:55:27.430Z,45
2017-02-09T09:56:27.793Z,45
2017-02-09T09:57:27.392Z,45
2017-02-09T09:58:26.962Z,45
2017-02-09T09:59:27.704Z,45
2017-02-09T10:00:27.778Z,45
2017-02-09T10:01:28.075Z,45
2017-02-09T10:02:28.076Z,45
2017-02-09T10:03:26.448Z,45
2017-02-09T10:04:28.283Z,45
2017-02-09T10:05:27.925Z,45
2017-02-09T10:06:27.534Z,40
2017-02-09T10:07:27.914Z,40
2017-02-09T10:08:27.173Z,40
2017-02-09T10:09:27.421Z,40
2017-02-09T10:10:27.443Z,45
2017-02-09T10:11:27.422Z,45
2017-02-09T10:12:27.472Z,45
2017-02-09T10:13:26.925Z,45
2017-02-09T10:14:26.991Z,45
2017-02-09T10:15:26.919Z,50
2017-02-09T10:16:27.248Z,50
2017-02-09T10:17:27.656Z,50
2017-02-09T10:18:27.269Z,50
2017-02-09T10:19:26.828Z,45
2017-02-09T10:20:26.744Z,45
2017-02-09T10:21:27.194Z,50
2017-02-09T10:22:26.686Z,55
2017-02-09T10:23:27.427Z,55
2017-02-09T10:24:27.396Z,55
2017-02-09T10:25:27.070Z,60
2017-02-09T10:26:26.990Z,60
2017-02-09T10:27:27.312Z,60
2017-02-09T10:28:26.911Z,60
2017-02-09T10:29:26.876Z,60
2017-02-09T10:30:26.442Z,55
2017-02-09T10:31:26.471Z,55
2017-02-09T10:32:27.171Z,60
2017-02-09T10:33:26.522Z,60
2017-02-09T10:34:27.119Z,60
2017-02-09T10:35:27.097Z,60
2017-02-09T10:36:26.660Z,65
2017-02-09T10:37:27.039Z,65
2017-02-09T10:38:27.009Z,65
2017-02-09T10:39:26.602Z,65
2017-02-09T10:40:26.685Z,60
2017-02-09T10:41:26.955Z,60
2017-02-09T10:42:26.902Z,65
2017-02-09T10:43:26.547Z,65
2017-02-09T10:44:26.864Z,70
2017-02-09T10:45:26.814Z,70
2017-02-09T10:46:26.403Z,75
2017-02-09T10:47:26.429Z,75
2017-02-09T10:48:26.392Z,75
2017-02-09T10:49:25.923Z,70
2017-02-09T10:50:26.671Z,75
2017-02-09T10:51:26.260Z,75
2017-02-09T10:52:26.240Z,75
2017-02-09T10:53:26.289Z,70
2017-02-09T10:54:26.561Z,70
2017-02-09T10:55:26.144Z,70
2017-02-09T10:56:26.499Z,65
2017-02-09T10:57:26.075Z,65
2017-02-09T10:58:26.450Z,70
2017-02-09T10:59:25.680Z,65
2017-02-09T11:00:25.235Z,70
2017-02-09T11:01:26.410Z,70
2017-02-09T11:02:25.942Z,70
2017-02-09T11:03:26.009Z,70
2017-02-09T11:04:25.489Z,70
2017-02-09T11:05:25.937Z,70
2017-02-09T11:06:25.839Z,70
2017-02-09T11:07:25.891Z,70
2017-02-09T11:08:25.754Z,70
2017-02-09T11:09:25.443Z,70
2017-02-09T11:10:26.113Z,65
2017-02-09T11:11:26.211Z,65
2017-02-09T11:12:26.070Z,65
2017-02-09T11:13:25.777Z,65
2017-02-09T11:14:26.003Z,65
2017-02-09T11:15:25.196Z,70
2017-02-09T11:16:25.548Z,70
2017-02-09T11:17:25.179Z,75
2017-02-09T11:18:25.507Z,75
2017-02-09T11:19:25.862Z,75
2017-02-09T11:20:25.832Z,75
2017-02-09T11:21:25.835Z,70
2017-02-09T11:22:24.705Z,70
2017-02-09T11:23:25.758Z,70
2017-02-09T11:24:25.727Z,70
2017-02-09T11:25:25.295Z,70
2017-02-09T11:26:25.283Z,70
2017-02-09T11:27:24.142Z,70
2017-02-09T11:28:25.615Z,70
2017-02-09T11:29:24.854Z,70
2017-02-09T11:30:24.812Z,80
2017-02-09T11:31:24.809Z,80
2017-02-09T11:32:25.161Z,80
2017-02-09T11:33:24.668Z,75
2017-02-09T11:34:24.661Z,75
2017-02-09T11:35:23.988Z,75
2017-02-09T11:36:24.585Z,70
2017-02-09T11:37:24.592Z,70
2017-02-09T11:38:24.963Z,70
2017-02-09T11:39:24.569Z,70
2017-02-09T11:40:25.284Z,70
2017-02-09T11:41:24.937Z,75
2017-02-09T11:42:24.914Z,75
2017-02-09T11:43:24.013Z,75
2017-02-09T11:44:24.482Z,75
2017-02-09T11:45:24.799Z,75
2017-02-09T11:46:24.694Z,75
2017-02-09T11:47:25.084Z,80
2017-02-09T11:48:24.650Z,80
2017-02-09T11:49:24.260Z,80
2017-02-09T11:50:24.984Z,80
2017-02-09T11:51:24.308Z,80
2017-02-09T11:52:23.779Z,85
2017-02-09T11:53:24.965Z,80
2017-02-09T11:54:24.878Z,80
2017-02-09T11:55:24.849Z,80
2017-02-09T11:56:24.452Z,80
2017-02-09T11:57:24.521Z,75
2017-02-09T11:58:24.789Z,80
2017-02-09T11:59:23.576Z,80
2017-02-09T12:00:24.364Z,80
2017-02-09T12:01:24.692Z,80
2017-02-09T12:02:23.508Z,85
2017-02-09T12:03:24.252Z,90
2017-02-09T12:04:24.232Z,85
2017-02-09T12:05:23.791Z,85
2017-02-09T12:06:24.531Z,85
2017-02-09T12:07:24.151Z,85
2017-02-09T12:08:24.490Z,85
2017-02-09T12:09:24.054Z,85
2017-02-09T12:10:23.666Z,85
2017-02-09T12:11:24.401Z,85
2017-02-09T12:12:24.018Z,85
2017-02-09T12:13:23.583Z,85
2017-02-09T12:14:24.338Z,85
2017-02-09T12:15:23.927Z,85
2017-02-09T12:16:23.886Z,85
2017-02-09T12:17:23.845Z,85
2017-02-09T12:18:24.213Z,80
2017-02-09T12:19:23.855Z,80
2017-02-09T12:20:24.146Z,80
2017-02-09T12:21:23.354Z,80
2017-02-09T12:22:23.316Z,80
2017-02-09T12:23:24.873Z,80
2017-02-09T12:24:23.670Z,80
2017-02-09T12:25:22.862Z,75
2017-02-09T12:26:23.600Z,75
2017-02-09T12:27:23.590Z,75
2017-02-09T12:28:23.260Z,75
2017-02-09T12:29:23.923Z,80
2017-02-09T12:30:23.498Z,80
2017-02-09T12:31:23.479Z,85
2017-02-09T12:32:23.437Z,85
2017-02-09T12:33:23.789Z,85
2017-02-09T12:34:23.370Z,85
2017-02-09T12:35:23.415Z,85
2017-02-09T12:36:22.928Z,85
2017-02-09T12:37:23.025Z,85
2017-02-09T12:38:23.287Z,85
2017-02-09T12:39:23.663Z,85
2017-02-09T12:40:22.946Z,85
2017-02-09T12:41:23.578Z,85
2017-02-09T12:42:22.782Z,80
2017-02-09T12:43:22.801Z,80
2017-02-09T12:44:22.332Z,80
2017-02-09T12:45:22.683Z,80
2017-02-09T12:46:23.055Z,80
2017-02-09T12:47:23.412Z,80
2017-02-09T12:48:23.000Z,80
2017-02-09T12:49:22.987Z,85
2017-02-09T12:50:23.339Z,85
2017-02-09T12:51:23.317Z,85
2017-02-09T12:52:22.896Z,85
2017-02-09T12:53:22.876Z,85
2017-02-09T12:54:22.896Z,90
2017-02-09T12:55:22.136Z,90
2017-02-09T12:56:22.480Z,90
2017-02-09T12:57:22.366Z,90
2017-02-09T12:58:23.129Z,90
2017-02-09T12:59:22.701Z,90
2017-02-09T13:00:22.413Z,85
2017-02-09T13:01:23.042Z,85
2017-02-09T13:02:22.218Z,85
2017-02-09T13:03:22.642Z,85
2017-02-09T13:04:22.945Z,85
2017-02-09T13:05:22.513Z,85
2017-02-09T13:06:22.510Z,85
2017-02-09T13:07:22.468Z,85
2017-02-09T13:08:22.460Z,85
2017-02-09T13:09:22.048Z,85
2017-02-09T13:10:22.401Z,80
2017-02-09T13:11:22.798Z,80
2017-02-09T13:12:22.327Z,80
2017-02-09T13:13:21.975Z,85
2017-02-09T13:14:22.274Z,85
2017-02-09T13:15:21.477Z,85
2017-02-09T13:16:22.254Z,90
2017-02-09T13:17:22.208Z,95
2017-02-09T13:18:21.793Z,90
2017-02-09T13:19:22.548Z,85
2017-02-09T13:20:22.517Z,85
2017-02-09T13:21:22.114Z,85
2017-02-09T13:22:22.512Z,85
2017-02-09T13:23:22.033Z,85
2017-02-09T13:24:22.455Z,90
2017-02-09T13:25:21.999Z,90
2017-02-09T13:26:21.617Z,90
2017-02-09T13:27:21.558Z,95
2017-02-09T13:28:21.888Z,95
2017-02-09T13:29:21.877Z,95
2017-02-09T13:30:22.253Z,100
2017-02-09T13:31:22.287Z,100
2017-02-09T13:32:21.845Z,105
2017-02-09T13:33:21.756Z,105
2017-02-09T13:34:21.754Z,110
2017-02-09T13:35:22.216Z,110
2017-02-09T13:36:21.305Z,115
2017-02-09T13:37:21.671Z,110
2017-02-09T13:38:22.057Z,105
2017-02-09T13:39:22.083Z,95
2017-02-09T13:40:21.981Z,85
2017-02-09T13:41:20.818Z,85
2017-02-09T13:42:21.140Z,80
2017-02-09T13:43:21.890Z,80
2017-02-09T13:44:21.086Z,85
2017-02-09T13:45:21.839Z,80
2017-02-09T13:46:21.426Z,80
2017-02-09T13:47:21.771Z,80
2017-02-09T13:48:21.012Z,75
2017-02-09T13:49:21.348Z,70
2017-02-09T13:50:20.932Z,70
2017-02-09T13:51:20.900Z,65
2017-02-09T13:52:21.665Z,65
2017-02-09T13:53:21.220Z,65
2017-02-09T13:54:21.194Z,60
2017-02-09T13:55:21.184Z,60
2017-02-09T13:56:20.872Z,60
2017-02-09T13:57:21.113Z,60
2017-02-09T13:58:21.103Z,60
2017-02-09T13:59:21.443Z,55
2017-02-09T14:00:21.487Z,55
2017-02-09T14:01:19.898Z,50
2017-02-09T14:02:21.004Z,50
2017-02-09T14:03:20.200Z,50
2017-02-09T14:04:20.531Z,50
2017-02-09T14:05:20.909Z,55
2017-02-09T14:06:21.313Z,55
2017-02-09T14:07:21.227Z,55
2017-02-09T14:08:20.432Z,55
2017-02-09T14:09:20.435Z,50
2017-02-09T14:10:20.753Z,50
2017-02-09T14:11:20.776Z,50
2017-02-09T14:12:21.185Z,55
2017-02-09T14:13:21.123Z,55
2017-02-09T14:14:21.084Z,55
2017-02-09T14:15:21.007Z,50
2017-02-09T14:16:20.596Z,50
2017-02-09T14:17:20.965Z,50
2017-02-09T14:18:20.557Z,45
2017-02-09T14:19:20.524Z,45
2017-02-09T14:20:20.891Z,45
2017-02-09T14:21:19.687Z,50
2017-02-09T14:22:20.555Z,50
2017-02-09T14:23:20.885Z,55
2017-02-09T14:24:20.839Z,60
2017-02-09T14:25:20.369Z,65
2017-02-09T14:26:20.699Z,70
2017-02-09T14:27:19.562Z,70
2017-02-09T14:28:19.880Z,75
2017-02-09T14:29:19.877Z,75
2017-02-09T14:30:19.446Z,75
2017-02-09T14:31:20.183Z,75